Time;durP1;ratioP1;P1;durP2;ratioP2;P2;SDS_P1;SDS_P2;PMS_P1;PMS_P2;Temp;Humidity;BMP_temperature;BMP_pressure;BME280_temperature;BME280_humidity;BME280_pressure;Samples;Min_cycle;Max_cycle;Signal;HPM_P1;HPM_P2
2023/04/06 00:00:43;;;;;;;;;;;;;;;-0.75;80.05;102141.47;4998342;28;19983;-71
2023/04/06 00:03:09;;;;;;;;;;;;;;;-0.78;80.27;102133.94;5001802;28;19949;-72
2023/04/06 00:05:34;;;;;;;;;;;;;;;-0.74;80.28;102131.81;4998426;28;20028;-73
2023/04/06 00:08:00;;;;;;;;;;;;;;;-0.64;80.24;102135.09;5000235;28;19978;-73
2023/04/06 00:10:26;;;;;;;;;;;;;;;-0.65;80.04;102139.56;4992582;28;19944;-73
2023/04/06 00:12:51;;;;;;;;;;;;;;;-0.68;80.06;102134.59;4998315;28;19957;-74
2023/04/06 00:15:17;;;;;;;;;;;;;;;-0.82;80.44;102130.78;5001057;28;19946;-73
2023/04/06 00:17:45;;;;;;;;;;;;;;;-0.84;80.68;102132.75;4993038;28;20447;-72
2023/04/06 00:20:11;;;;;;;;;;;;;;;-0.88;81.00;102130.59;5008408;28;19992;-72
2023/04/06 00:22:37;;;;;;;;;;;;;;;-0.94;80.91;102128.63;4988541;28;20635;-73
2023/04/06 00:25:02;;;;;;;;;;;;;;;-0.83;80.88;102134.41;5000753;28;20898;-72
2023/04/06 00:27:28;;;;;;;;;;;;;;;-0.78;80.47;102131.28;5004552;28;20039;-72
2023/04/06 00:29:54;;;;;;;;;;;;;;;-0.79;80.58;102134.09;4999611;28;19939;-72
2023/04/06 00:32:20;;;;;;;;;;;;;;;-0.93;80.60;102125.84;4990036;28;19961;-73
2023/04/06 00:34:45;;;;;;;;;;;;;;;-0.99;80.96;102126.47;5003097;28;20314;-73
2023/04/06 00:37:11;;;;;;;;;;;;;;;-1.08;81.32;102116.91;4997918;28;20588;-73
2023/04/06 00:39:37;;;;;;;;;;;;;;;-1.14;81.44;102117.56;5000315;28;19933;-72
2023/04/06 00:42:07;;;;;;;;;;;;;;;-1.20;81.81;102123.44;4984088;28;19929;-72
2023/04/06 00:44:33;;;;;;;;;;;;;;;-1.25;81.81;102109.94;4998408;28;19945;-74
2023/04/06 00:46:59;;;;;;;;;;;;;;;-1.22;81.89;102120.13;5015852;28;20003;-71
2023/04/06 00:49:24;;;;;;;;;;;;;;;-1.25;82.38;102109.94;5007253;28;19935;-72
2023/04/06 00:51:50;;;;;;;;;;;;;;;-1.22;82.21;102112.25;4995161;28;19982;-73
2023/04/06 00:54:16;;;;;;;;;;;;;;;-1.22;82.19;102114.88;5017815;28;19935;-73
2023/04/06 00:56:43;;;;;;;;;;;;;;;-1.20;82.24;102107.66;4993155;28;19936;-72
2023/04/06 00:59:10;;;;;;;;;;;;;;;-1.26;81.94;102103.88;5005943;28;20312;-73
2023/04/06 01:01:35;;;;;;;;;;;;;;;-1.31;82.09;102102.69;4985332;28;20605;-73
2023/04/06 01:04:09;;;;;;;;;;;;;;;-1.41;82.02;102105.44;5000462;28;19940;-72
2023/04/06 01:06:40;;;;;;;;;;;;;;;-1.43;82.35;102097.69;5017590;28;19936;-73
2023/04/06 01:09:06;;;;;;;;;;;;;;;-1.54;82.71;102105.06;4984056;28;19937;-73
2023/04/06 01:11:32;;;;;;;;;;;;;;;-1.56;83.35;102097.31;4995764;28;20013;-75
2023/04/06 01:14:00;;;;;;;;;;;;;;;-1.47;83.02;102106.91;5005728;28;20023;-72
2023/04/06 01:16:42;;;;;;;;;;;;;;;-1.51;82.64;102100.28;5016458;28;19956;-72
2023/04/06 01:19:12;;;;;;;;;;;;;;;-1.51;82.13;102099.47;4999729;28;20341;-73
2023/04/06 01:21:41;;;;;;;;;;;;;;;-1.54;83.04;102099.81;4989315;28;20020;-73
2023/04/06 01:24:19;;;;;;;;;;;;;;;-1.47;83.61;102099.00;5002545;28;19934;-75
2023/04/06 01:27:01;;;;;;;;;;;;;;;-1.43;83.72;102089.81;5007338;28;19921;-74
2023/04/06 01:29:34;;;;;;;;;;;;;;;-1.43;83.50;102092.44;5003678;28;20397;-74
2023/04/06 01:32:28;;;;;;;;;;;;;;;-1.45;83.97;102083.91;4999165;28;19948;-73
2023/04/06 01:34:54;;;;;;;;;;;;;;;-1.46;84.10;102081.44;4988087;28;19960;-72
2023/04/06 01:37:20;;;;;;;;;;;;;;;-1.49;84.25;102087.00;5004180;28;20253;-75
2023/04/06 01:39:46;;;;;;;;;;;;;;;-1.59;84.53;102086.31;4971643;28;19934;-72
2023/04/06 01:42:18;;;;;;;;;;;;;;;-1.62;85.23;102084.00;4985012;28;19956;-71
2023/04/06 01:44:46;;;;;;;;;;;;;;;-1.61;85.39;102088.28;4985187;28;19938;-72
2023/04/06 01:47:13;;;;;;;;;;;;;;;-1.69;85.31;102082.00;5018000;28;20023;-71
2023/04/06 01:49:39;;;;;;;;;;;;;;;-1.65;85.44;102087.75;5002623;28;20392;-71
2023/04/06 01:52:07;;;;;;;;;;;;;;;-1.65;85.50;102082.50;4988971;28;19948;-71
2023/04/06 01:54:36;;;;;;;;;;;;;;;-1.70;85.61;102080.31;4988143;28;19956;-72
2023/04/06 01:57:12;;;;;;;;;;;;;;;-1.70;85.47;102080.31;4987533;28;19983;-72
2023/04/06 01:59:45;;;;;;;;;;;;;;;-1.77;85.58;102083.72;4991846;28;20372;-72
2023/04/06 02:02:19;;;;;;;;;;;;;;;-1.81;85.90;102075.38;5002956;28;19958;-72
2023/04/06 02:04:54;;;;;;;;;;;;;;;-1.84;85.65;102072.22;4997838;28;19945;-71
2023/04/06 02:07:19;;;;;;;;;;;;;;;-1.77;85.74;102065.34;4969122;28;20557;-73
2023/04/06 02:09:46;;;;;;;;;;;;;;;-1.81;86.03;102070.09;4985641;28;19940;-73
2023/04/06 02:12:23;;;;;;;;;;;;;;;-1.85;86.13;102068.75;4981096;28;20065;-71
2023/04/06 02:14:49;;;;;;;;;;;;;;;-1.81;86.41;102071.91;4999731;28;19934;-72
2023/04/06 02:17:14;;;;;;;;;;;;;;;-1.84;86.42;102067.78;5003618;28;20629;-74
2023/04/06 02:19:40;;;;;;;;;;;;;;;-1.86;86.13;102068.91;4987912;28;20383;-73
2023/04/06 02:22:06;;;;;;;;;;;;;;;-1.88;86.16;102065.63;4993902;28;20009;-75
2023/04/06 02:24:32;;;;;;;;;;;;;;;-1.90;86.64;102063.13;4995267;28;19983;-75
2023/04/06 02:26:58;;;;;;;;;;;;;;;-1.98;86.38;102060.47;4999910;28;20419;-72
2023/04/06 02:29:23;;;;;;;;;;;;;;;-1.97;86.78;102056.88;5002813;28;20949;-73
2023/04/06 02:31:50;;;;;;;;;;;;;;;-1.94;86.64;102051.31;4985047;28;19955;-75
2023/04/06 02:34:17;;;;;;;;;;;;;;;-1.99;86.51;102054.41;4997187;28;20373;-73
2023/04/06 02:36:46;;;;;;;;;;;;;;;-2.00;86.48;102051.94;5005330;28;20008;-72
2023/04/06 02:39:13;;;;;;;;;;;;;;;-1.98;86.29;102061.28;5009071;28;19941;-72
2023/04/06 02:41:39;;;;;;;;;;;;;;;-2.02;86.76;102054.72;4979661;28;19962;-73
2023/04/06 02:44:08;;;;;;;;;;;;;;;-1.93;86.45;102060.84;4975167;28;19978;-73
2023/04/06 02:46:40;;;;;;;;;;;;;;;-2.02;86.16;102059.97;5000313;28;19988;-73
2023/04/06 02:49:06;;;;;;;;;;;;;;;-1.85;86.06;102055.63;4988597;28;19933;-72
2023/04/06 02:51:33;;;;;;;;;;;;;;;-1.92;86.00;102059.84;5004519;28;20058;-73
2023/04/06 02:54:10;;;;;;;;;;;;;;;-1.85;86.23;102060.88;5019209;28;19978;-73
2023/04/06 02:56:38;;;;;;;;;;;;;;;-1.81;87.08;102067.47;4993585;28;19941;-75
2023/04/06 02:59:04;;;;;;;;;;;;;;;-1.72;87.13;102060.47;4982954;28;19943;-73
2023/04/06 03:01:32;;;;;;;;;;;;;;;-1.73;87.04;102064.06;5020454;28;19987;-71
2023/04/06 03:04:01;;;;;;;;;;;;;;;-1.60;86.57;102064.47;5004185;28;19929;-72
2023/04/06 03:06:28;;;;;;;;;;;;;;;-1.77;86.86;102062.72;5013565;28;20346;-73
2023/04/06 03:08:58;;;;;;;;;;;;;;;-1.81;87.03;102066.66;4999155;28;20006;-72
2023/04/06 03:11:24;;;;;;;;;;;;;;;-1.68;87.66;102061.81;4983157;28;20409;-72
2023/04/06 03:13:51;;;;;;;;;;;;;;;-1.33;87.37;102066.06;5002042;28;19948;-73
2023/04/06 03:16:17;;;;;;;;;;;;;;;-1.31;88.00;102066.72;4964683;28;19934;-73
2023/04/06 03:18:44;;;;;;;;;;;;;;;-1.41;87.07;102064.22;4983412;28;19944;-74
2023/04/06 03:21:11;;;;;;;;;;;;;;;-1.53;87.31;102062.84;4979903;28;20060;-72
2023/04/06 03:23:49;;;;;;;;;;;;;;;-1.79;87.63;102056.81;4987998;28;20035;-73
2023/04/06 03:26:15;;;;;;;;;;;;;;;-1.66;87.70;102059.84;5002095;28;20069;-72
2023/04/06 03:28:40;;;;;;;;;;;;;;;-1.77;87.60;102057.47;4987477;28;20381;-73
2023/04/06 03:31:06;;;;;;;;;;;;;;;-1.86;87.74;102063.66;4988240;28;19940;-72
2023/04/06 03:33:50;;;;;;;;;;;;;;;-1.76;87.72;102064.38;4991101;28;19952;-71
2023/04/06 03:36:21;;;;;;;;;;;;;;;-1.56;88.07;102059.72;5002560;28;20320;-72
2023/04/06 03:38:47;;;;;;;;;;;;;;;-1.60;87.63;102067.09;4985254;28;19933;-72
2023/04/06 03:41:13;;;;;;;;;;;;;;;-1.55;87.71;102056.13;4983827;28;19961;-72
2023/04/06 03:43:43;;;;;;;;;;;;;;;-1.46;87.81;102066.50;4997754;28;19935;-73
2023/04/06 03:46:08;;;;;;;;;;;;;;;-1.47;87.79;102059.59;4998039;28;19939;-73
2023/04/06 03:48:34;;;;;;;;;;;;;;;-1.73;87.49;102058.81;4970740;28;19942;-73
2023/04/06 03:51:03;;;;;;;;;;;;;;;-1.85;88.25;102071.38;5016215;28;20095;-75
2023/04/06 03:53:28;;;;;;;;;;;;;;;-1.59;87.60;102068.75;4983161;28;20012;-74
2023/04/06 03:55:54;;;;;;;;;;;;;;;-1.68;87.44;102067.88;5010354;28;20390;-75
2023/04/06 03:58:20;;;;;;;;;;;;;;;-1.81;87.74;102062.22;5002125;28;19941;-75
2023/04/06 04:00:45;;;;;;;;;;;;;;;-1.89;87.40;102072.69;5016450;28;19939;-73
2023/04/06 04:03:11;;;;;;;;;;;;;;;-1.93;87.49;102066.91;4992374;28;19929;-75
2023/04/06 04:05:36;;;;;;;;;;;;;;;-1.97;87.76;102068.19;5002745;28;20562;-73
2023/04/06 04:08:02;;;;;;;;;;;;;;;-2.24;87.96;102066.53;4968445;28;19934;-73
2023/04/06 04:10:27;;;;;;;;;;;;;;;-2.29;88.37;102068.00;4979888;28;19940;-74
2023/04/06 04:12:53;;;;;;;;;;;;;;;-1.96;88.88;102064.63;4988301;28;20322;-73
2023/04/06 04:15:19;;;;;;;;;;;;;;;-1.97;88.35;102072.63;4976021;28;19933;-73
2023/04/06 04:17:46;;;;;;;;;;;;;;;-2.10;88.10;102070.44;4984655;28;19946;-75
2023/04/06 04:20:12;;;;;;;;;;;;;;;-2.30;88.34;102071.59;4968797;28;19938;-75
2023/04/06 04:22:38;;;;;;;;;;;;;;;-2.37;88.71;102076.63;4997877;28;19979;-74
2023/04/06 04:25:04;;;;;;;;;;;;;;;-2.39;88.84;102080.34;5019330;28;19945;-74
2023/04/06 04:27:31;;;;;;;;;;;;;;;-2.49;88.45;102078.66;4969113;28;19958;-73
2023/04/06 04:29:57;;;;;;;;;;;;;;;-2.60;88.67;102081.50;4992226;28;20174;-75
2023/04/06 04:32:27;;;;;;;;;;;;;;;-2.49;88.89;102086.53;5024758;28;19951;-73
2023/04/06 04:34:54;;;;;;;;;;;;;;;-1.99;89.16;102080.66;5010480;28;19938;-74
2023/04/06 04:37:31;;;;;;;;;;;;;;;-1.87;88.75;102080.41;5023366;28;19943;-74
2023/04/06 04:39:57;;;;;;;;;;;;;;;-1.88;88.44;102086.66;4991179;28;19938;-74
2023/04/06 04:42:23;;;;;;;;;;;;;;;-2.01;88.85;102081.81;5008746;28;19925;-73
2023/04/06 04:44:51;;;;;;;;;;;;;;;-2.09;88.25;102079.13;4988129;28;19989;-75
2023/04/06 04:47:29;;;;;;;;;;;;;;;-2.25;88.71;102083.25;4978999;28;19981;-74
2023/04/06 04:49:54;;;;;;;;;;;;;;;-2.05;89.04;102086.53;4985446;28;19933;-72
2023/04/06 04:52:22;;;;;;;;;;;;;;;-2.06;88.60;102081.44;5003855;28;19956;-74
2023/04/06 04:55:08;;;;;;;;;;;;;;;-1.88;88.28;102071.72;5004331;28;19939;-73
2023/04/06 04:57:34;;;;;;;;;;;;;;;-1.80;87.97;102089.31;5005074;28;20352;-74
2023/04/06 04:59:59;;;;;;;;;;;;;;;-1.82;87.96;102086.03;4966385;28;19948;-74
2023/04/06 05:02:25;;;;;;;;;;;;;;;-1.75;87.85;102082.63;4989650;28;20007;-74
2023/04/06 05:05:09;;;;;;;;;;;;;;;-1.94;87.64;102083.66;5005958;28;20126;-73
2023/04/06 05:07:38;;;;;;;;;;;;;;;-1.96;88.05;102080.38;4997024;28;20075;-73
2023/04/06 05:10:05;;;;;;;;;;;;;;;-1.85;87.86;102078.44;4967483;28;19921;-76
2023/04/06 05:12:37;;;;;;;;;;;;;;;-1.88;88.00;102081.38;4974911;28;20060;-74
2023/04/06 05:15:08;;;;;;;;;;;;;;;-1.92;87.86;102079.06;5003448;28;19958;-75
2023/04/06 05:17:34;;;;;;;;;;;;;;;-1.84;87.79;102087.97;5003183;28;20072;-73
2023/04/06 05:20:00;;;;;;;;;;;;;;;-1.59;87.63;102081.88;5000817;28;20719;-75
2023/04/06 05:22:28;;;;;;;;;;;;;;;-1.75;88.04;102087.88;5004381;28;19957;-74
2023/04/06 05:25:01;;;;;;;;;;;;;;;-1.60;87.59;102080.22;4985991;28;19944;-72
2023/04/06 05:27:29;;;;;;;;;;;;;;;-1.46;87.30;102086.69;5021974;28;20028;-75
2023/04/06 05:29:55;;;;;;;;;;;;;;;-1.35;87.10;102082.94;4971410;28;20313;-75
2023/04/06 05:32:24;;;;;;;;;;;;;;;-1.23;86.50;102086.94;4977882;28;19954;-74
2023/04/06 05:34:50;;;;;;;;;;;;;;;-1.18;86.27;102090.75;4984692;28;19933;-72
2023/04/06 05:37:16;;;;;;;;;;;;;;;-1.04;85.81;102078.78;5002952;28;19918;-72
2023/04/06 05:39:42;;;;;;;;;;;;;;;-1.11;86.11;102080.41;5020354;28;19936;-74
2023/04/06 05:42:07;;;;;;;;;;;;;;;-0.88;85.04;102083.25;4996684;28;20004;-74
2023/04/06 05:44:47;;;;;;;;;;;;;;;-0.76;84.55;102081.16;4988879;28;20317;-72
2023/04/06 05:47:15;;;;;;;;;;;;;;;-0.68;83.95;102075.91;5014216;28;19938;-72
2023/04/06 05:49:42;;;;;;;;;;;;;;;-0.57;83.57;102078.22;5014745;28;19945;-74
2023/04/06 05:52:15;;;;;;;;;;;;;;;-0.50;83.33;102071.31;4986448;28;19956;-73
2023/04/06 05:54:44;;;;;;;;;;;;;;;-0.39;82.67;102075.44;4997254;28;19961;-74
2023/04/06 05:57:10;;;;;;;;;;;;;;;-0.26;81.81;102078.41;4981623;28;19936;-73
2023/04/06 05:59:36;;;;;;;;;;;;;;;-0.16;81.66;102067.69;5000169;28;19943;-73
2023/04/06 06:02:02;;;;;;;;;;;;;;;-0.04;80.96;102069.00;5004496;28;20021;-75
2023/04/06 06:04:30;;;;;;;;;;;;;;;0.09;80.26;102073.75;4988209;28;19940;-73
2023/04/06 06:06:56;;;;;;;;;;;;;;;0.28;79.07;102072.56;5003474;28;19941;-73
2023/04/06 06:09:32;;;;;;;;;;;;;;;0.43;78.33;102070.84;5003012;28;20307;-72
2023/04/06 06:12:07;;;;;;;;;;;;;;;0.66;77.48;102077.00;5003650;28;20383;-74
2023/04/06 06:14:33;;;;;;;;;;;;;;;0.74;75.90;102074.31;5015835;28;20410;-74
2023/04/06 06:17:01;;;;;;;;;;;;;;;0.78;75.19;102070.38;4984267;28;19935;-70
2023/04/06 06:19:27;;;;;;;;;;;;;;;1.04;73.79;102069.25;4990259;28;19949;-74
2023/04/06 06:21:56;;;;;;;;;;;;;;;1.09;73.26;102080.09;4987654;28;20038;-74
2023/04/06 06:24:22;;;;;;;;;;;;;;;1.17;73.11;102077.41;5014043;28;19933;-73
2023/04/06 06:26:48;;;;;;;;;;;;;;;1.34;73.30;102081.56;4990829;28;19946;-75
2023/04/06 06:29:16;;;;;;;;;;;;;;;1.49;71.96;102083.44;4997864;28;20396;-75
2023/04/06 06:31:42;;;;;;;;;;;;;;;1.57;70.99;102080.75;5004258;28;19959;-73
2023/04/06 06:34:08;;;;;;;;;;;;;;;1.79;70.81;102073.81;4981773;28;20035;-73
2023/04/06 06:36:35;;;;;;;;;;;;;;;1.82;68.77;102078.72;4995572;28;19988;-74
2023/04/06 06:39:04;;;;;;;;;;;;;;;1.90;68.35;102073.38;4995381;28;19944;-74
2023/04/06 06:41:29;;;;;;;;;;;;;;;1.93;68.10;102075.66;4999581;28;19962;-73
2023/04/06 06:43:56;;;;;;;;;;;;;;;2.15;67.09;102079.22;5001375;28;20671;-73
2023/04/06 06:46:22;;;;;;;;;;;;;;;2.08;67.42;102081.75;4991138;28;19960;-73
2023/04/06 06:48:47;;;;;;;;;;;;;;;2.13;66.70;102070.66;4972636;28;19986;-74
2023/04/06 06:51:13;;;;;;;;;;;;;;;2.36;67.82;102075.84;4997817;28;19940;-72
2023/04/06 06:53:40;;;;;;;;;;;;;;;2.38;67.06;102079.97;4966344;28;19922;-73
2023/04/06 06:56:05;;;;;;;;;;;;;;;2.54;67.33;102078.13;4975510;28;19946;-72
2023/04/06 06:58:31;;;;;;;;;;;;;;;2.60;65.64;102075.56;5017985;28;20020;-73
2023/04/06 07:00:58;;;;;;;;;;;;;;;2.60;65.72;102075.56;4984449;28;19964;-72
2023/04/06 07:03:24;;;;;;;;;;;;;;;2.94;64.93;102069.69;4996736;28;20715;-72
2023/04/06 07:05:53;;;;;;;;;;;;;;;3.01;65.95;102081.16;4985987;28;20045;-74
2023/04/06 07:08:21;;;;;;;;;;;;;;;3.09;65.40;102080.22;4967450;28;19941;-71
2023/04/06 07:10:48;;;;;;;;;;;;;;;3.17;64.74;102079.28;4986889;28;19932;-74
2023/04/06 07:13:18;;;;;;;;;;;;;;;3.46;64.05;102076.53;4981392;28;19952;-74
2023/04/06 07:15:44;;;;;;;;;;;;;;;3.59;64.10;102081.13;5011554;28;19940;-73
2023/04/06 07:18:11;;;;;;;;;;;;;;;3.65;63.48;102071.56;4977868;28;19950;-73
2023/04/06 07:20:36;;;;;;;;;;;;;;;3.88;62.94;102069.53;4992011;28;19941;-73
2023/04/06 07:23:02;;;;;;;;;;;;;;;4.00;62.85;102069.84;4997813;28;19968;-72
2023/04/06 07:25:29;;;;;;;;;;;;;;;3.70;62.87;102075.31;4996905;28;20300;-72
2023/04/06 07:27:54;;;;;;;;;;;;;;;3.86;63.45;102058.28;5002466;28;19955;-72
2023/04/06 07:30:21;;;;;;;;;;;;;;;3.99;62.93;102066.34;5002868;28;19947;-73
2023/04/06 07:32:48;;;;;;;;;;;;;;;4.00;62.91;102059.22;4997402;28;19945;-73
2023/04/06 07:35:14;;;;;;;;;;;;;;;4.28;62.79;102067.16;4974807;28;19976;-73
2023/04/06 07:37:42;;;;;;;;;;;;;;;4.31;61.56;102056.16;5020414;28;19945;-73
2023/04/06 07:40:08;;;;;;;;;;;;;;;4.30;61.38;102060.63;5011359;28;19938;-72
2023/04/06 07:42:34;;;;;;;;;;;;;;;4.39;60.55;102058.63;5002086;28;20047;-73
2023/04/06 07:44:59;;;;;;;;;;;;;;;4.46;60.47;102059.47;5003816;28;20031;-73
2023/04/06 07:47:25;;;;;;;;;;;;;;;4.58;60.72;102057.91;4983382;28;20390;-72
2023/04/06 07:49:51;;;;;;;;;;;;;;;4.75;60.05;102055.75;5001401;28;19973;-72
2023/04/06 07:52:17;;;;;;;;;;;;;;;4.73;59.71;102049.78;4983164;28;19951;-72
2023/04/06 07:54:44;;;;;;;;;;;;;;;4.78;59.08;102049.22;5004872;28;19973;-73
2023/04/06 07:57:09;;;;;;;;;;;;;;;4.85;59.38;102042.09;5001164;28;19943;-73
2023/04/06 07:59:41;;;;;;;;;;;;;;;5.08;59.62;102050.53;5002262;28;20396;-72
2023/04/06 08:02:08;;;;;;;;;;;;;;;5.37;59.64;102048.53;4983018;28;19964;-74
2023/04/06 08:04:35;;;;;;;;;;;;;;;5.34;58.68;102046.25;4964756;28;19940;-72
2023/04/06 08:07:00;;;;;;;;;;;;;;;5.43;58.17;102045.88;4981659;28;20423;-72
2023/04/06 08:09:27;;;;;;;;;;;;;;;5.47;57.32;102049.75;5002759;28;20397;-72
2023/04/06 08:11:52;;;;;;;;;;;;;;;5.79;57.99;102054.47;5008716;28;20044;-71
2023/04/06 08:14:18;;;;;;;;;;;;;;;5.90;56.81;102045.88;5018606;28;20029;-73
2023/04/06 08:16:44;;;;;;;;;;;;;;;6.16;56.16;102048.50;5001060;28;20441;-75
2023/04/06 08:19:10;;;;;;;;;;;;;;;6.15;56.40;102049.53;4987567;28;20443;-72
2023/04/06 08:21:36;;;;;;;;;;;;;;;6.49;55.46;102050.25;5010774;28;19962;-75
2023/04/06 08:24:02;;;;;;;;;;;;;;;6.50;55.21;102042.06;5010219;28;20269;-72
2023/04/06 08:26:28;;;;;;;;;;;;;;;6.61;53.61;102045.91;5001243;28;19933;-72
2023/04/06 08:28:53;;;;;;;;;;;;;;;6.62;53.60;102039.56;4991531;28;20335;-73
2023/04/06 08:31:19;;;;;;;;;;;;;;;6.59;50.72;102044.50;4998888;28;19958;-73
2023/04/06 08:33:45;;;;;;;;;;;;;;;6.65;52.93;102033.81;4997453;28;20837;-71
2023/04/06 08:36:14;;;;;;;;;;;;;;;6.96;52.99;102038.34;4977848;28;20367;-72
2023/04/06 08:38:40;;;;;;;;;;;;;;;6.77;50.91;102034.78;5018419;28;19938;-72
2023/04/06 08:41:10;;;;;;;;;;;;;;;6.86;51.55;102035.34;5021448;28;19935;-72
2023/04/06 08:43:56;;;;;;;;;;;;;;;7.27;50.66;102034.88;5001343;28;20402;-72
2023/04/06 08:46:22;;;;;;;;;;;;;;;7.25;49.00;102028.16;4996795;28;20775;-72
2023/04/06 08:48:49;;;;;;;;;;;;;;;7.49;49.04;102019.34;4992186;28;19973;-73
2023/04/06 08:51:15;;;;;;;;;;;;;;;7.52;48.67;102026.91;4990267;28;19948;-72
2023/04/06 08:53:41;;;;;;;;;;;;;;;7.59;49.60;102018.88;5008191;28;19937;-72
2023/04/06 08:56:07;;;;;;;;;;;;;;;7.86;48.24;102020.25;4988258;28;19941;-73
2023/04/06 08:58:34;;;;;;;;;;;;;;;7.92;47.89;102014.03;5016454;28;20038;-72
2023/04/06 09:01:00;;;;;;;;;;;;;;;7.81;46.90;102017.44;5008155;28;20284;-72
2023/04/06 09:03:28;;;;;;;;;;;;;;;7.84;46.26;102027.63;5004942;28;19940;-71
2023/04/06 09:05:53;;;;;;;;;;;;;;;7.95;47.09;102020.78;5001843;28;20022;-73
2023/04/06 09:08:19;;;;;;;;;;;;;;;7.91;46.93;102017.72;5006448;28;20420;-72
2023/04/06 09:10:45;;;;;;;;;;;;;;;8.12;47.86;102023.66;4991171;28;20508;-73
2023/04/06 09:13:10;;;;;;;;;;;;;;;8.26;45.04;102022.47;5012540;28;19955;-72
2023/04/06 09:15:37;;;;;;;;;;;;;;;8.42;46.76;102013.09;5001284;28;19939;-72
2023/04/06 09:18:03;;;;;;;;;;;;;;;8.55;43.64;102018.28;5005702;28;19962;-72
2023/04/06 09:20:32;;;;;;;;;;;;;;;8.42;42.91;102008.56;4993917;28;19931;-72
2023/04/06 09:22:58;;;;;;;;;;;;;;;8.83;45.01;102009.69;4978308;28;20330;-73
2023/04/06 09:25:26;;;;;;;;;;;;;;;8.87;43.44;102005.50;4998909;28;20723;-72
2023/04/06 09:28:02;;;;;;;;;;;;;;;8.82;43.33;102008.06;5014116;28;19943;-74
2023/04/06 09:30:28;;;;;;;;;;;;;;;8.75;43.04;102004.66;4986770;28;19995;-74
2023/04/06 09:32:57;;;;;;;;;;;;;;;8.98;43.53;101996.72;4992258;28;20317;-76
2023/04/06 09:35:22;;;;;;;;;;;;;;;9.01;41.60;101990.94;4968477;28;20407;-74
2023/04/06 09:37:49;;;;;;;;;;;;;;;8.79;39.98;101997.81;4977353;28;20556;-74
2023/04/06 09:40:17;;;;;;;;;;;;;;;8.76;39.93;101992.94;4992984;28;19998;-73
2023/04/06 09:42:45;;;;;;;;;;;;;;;8.79;41.03;101984.47;4992606;28;19966;-75
2023/04/06 09:45:10;;;;;;;;;;;;;;;8.97;38.64;101984.41;4994203;28;19936;-75
2023/04/06 09:47:37;;;;;;;;;;;;;;;8.93;37.35;101980.56;4994918;28;19938;-75
2023/04/06 09:50:02;;;;;;;;;;;;;;;9.27;37.70;101984.34;5000177;28;19979;-73
2023/04/06 09:52:33;;;;;;;;;;;;;;;9.24;37.80;101973.31;4978327;28;20499;-75
2023/04/06 09:55:05;;;;;;;;;;;;;;;9.55;37.18;101978.34;4983863;28;19992;-75
2023/04/06 09:57:32;;;;;;;;;;;;;;;9.61;37.96;101971.22;5006380;28;19937;-72
2023/04/06 10:00:09;;;;;;;;;;;;;;;9.64;37.77;101973.47;4989873;28;20457;-74
2023/04/06 10:02:39;;;;;;;;;;;;;;;9.37;35.97;101967.75;4999049;28;20006;-73
2023/04/06 10:05:23;;;;;;;;;;;;;;;9.68;37.28;101968.44;5002322;28;19937;-73
2023/04/06 10:07:50;;;;;;;;;;;;;;;9.30;36.90;101972.41;4988581;28;19975;-74
2023/04/06 10:10:16;;;;;;;;;;;;;;;9.60;36.93;101974.97;4997665;28;19992;-74
2023/04/06 10:12:44;;;;;;;;;;;;;;;9.64;37.36;101972.66;4995083;28;19968;-73
2023/04/06 10:15:10;;;;;;;;;;;;;;;9.66;36.37;101966.00;4997494;28;19941;-77
2023/04/06 10:17:35;;;;;;;;;;;;;;;9.74;36.29;101964.84;4998982;28;19936;-72
2023/04/06 10:20:14;;;;;;;;;;;;;;;9.73;36.00;101971.22;5017803;28;19935;-73
2023/04/06 10:22:56;;;;;;;;;;;;;;;10.09;36.59;101970.13;4991698;28;19963;-74
2023/04/06 10:25:32;;;;;;;;;;;;;;;10.30;36.74;101969.53;4999077;28;20039;-76
2023/04/06 10:28:08;;;;;;;;;;;;;;;10.32;37.19;101963.94;4971419;28;19938;-75
2023/04/06 10:30:35;;;;;;;;;;;;;;;10.54;36.59;101970.25;4996059;28;19942;-73
2023/04/06 10:33:00;;;;;;;;;;;;;;;10.68;36.48;101967.28;4998111;28;19947;-74
2023/04/06 10:35:36;;;;;;;;;;;;;;;10.39;35.61;101969.97;4998548;28;19934;-73
2023/04/06 10:38:05;;;;;;;;;;;;;;;10.56;35.78;101961.97;5002296;28;19991;-75
2023/04/06 10:40:33;;;;;;;;;;;;;;;10.55;34.86;101966.53;5011020;28;20384;-76
2023/04/06 10:43:12;;;;;;;;;;;;;;;10.34;35.61;101956.47;4992244;28;20475;-75
2023/04/06 10:45:39;;;;;;;;;;;;;;;10.61;35.57;101952.19;4980184;28;19937;-75
2023/04/06 10:48:18;;;;;;;;;;;;;;;10.70;35.49;101959.81;4989718;28;19938;-75
2023/04/06 10:50:44;;;;;;;;;;;;;;;10.80;37.39;101962.69;4982755;28;19944;-75
2023/04/06 10:53:10;;;;;;;;;;;;;;;10.70;36.44;101954.47;4978582;28;19953;-73
2023/04/06 10:55:38;;;;;;;;;;;;;;;10.73;34.88;101943.28;4994235;28;19943;-74
2023/04/06 10:58:06;;;;;;;;;;;;;;;10.52;35.43;101948.25;4991148;28;19941;-75
2023/04/06 11:00:31;;;;;;;;;;;;;;;10.81;35.34;101950.91;4998637;28;19992;-73
2023/04/06 11:03:03;;;;;;;;;;;;;;;11.34;34.98;101945.09;5004582;28;19966;-74
2023/04/06 11:05:28;;;;;;;;;;;;;;;11.11;35.08;101948.75;4998799;28;20446;-74
2023/04/06 11:07:56;;;;;;;;;;;;;;;11.16;35.13;101940.78;4996905;28;19936;-74
2023/04/06 11:10:22;;;;;;;;;;;;;;;11.10;35.59;101940.94;5000036;28;20028;-73
2023/04/06 11:12:52;;;;;;;;;;;;;;;11.38;35.45;101934.66;4979286;28;19958;-75
2023/04/06 11:15:18;;;;;;;;;;;;;;;11.02;33.91;101930.63;4978362;28;19938;-73
2023/04/06 11:17:45;;;;;;;;;;;;;;;11.13;35.83;101935.09;5004063;28;19959;-72
2023/04/06 11:20:11;;;;;;;;;;;;;;;10.81;34.57;101930.28;4996828;28;20592;-76
2023/04/06 11:22:47;;;;;;;;;;;;;;;10.95;35.18;101925.44;4976641;28;19991;-73
2023/04/06 11:25:13;;;;;;;;;;;;;;;11.10;34.44;101928.34;4996119;28;19950;-74
2023/04/06 11:27:39;;;;;;;;;;;;;;;11.11;34.38;101924.63;4998047;28;20701;-72
2023/04/06 11:30:05;;;;;;;;;;;;;;;11.32;34.12;101916.91;4996162;28;19993;-73
2023/04/06 11:32:39;;;;;;;;;;;;;;;11.15;34.28;101916.91;5010630;28;19949;-71
2023/04/06 11:35:04;;;;;;;;;;;;;;;11.13;34.92;101922.50;4997334;28;19939;-74
2023/04/06 11:37:30;;;;;;;;;;;;;;;11.44;36.20;101917.59;4995897;28;20419;-75
2023/04/06 11:39:57;;;;;;;;;;;;;;;11.92;34.28;101916.13;5001886;28;19936;-74
2023/04/06 11:42:23;;;;;;;;;;;;;;;11.88;34.90;101918.50;4997446;28;19962;-72
2023/04/06 11:44:50;;;;;;;;;;;;;;;11.62;35.68;101911.97;4962580;28;19936;-73
2023/04/06 11:47:16;;;;;;;;;;;;;;;11.70;33.42;101905.34;5005106;28;20408;-74
2023/04/06 11:49:44;;;;;;;;;;;;;;;11.70;33.42;101899.97;4986349;28;19937;-75
2023/04/06 11:52:16;;;;;;;;;;;;;;;11.81;33.32;101899.09;4991569;28;19946;-72
2023/04/06 11:54:41;;;;;;;;;;;;;;;11.60;32.79;101899.84;5005115;28;20473;-71
2023/04/06 11:57:07;;;;;;;;;;;;;;;11.56;32.94;101904.91;5005108;28;19960;-75
2023/04/06 11:59:33;;;;;;;;;;;;;;;12.06;34.35;101903.97;5004761;28;20043;-75
2023/04/06 12:01:58;;;;;;;;;;;;;;;11.99;32.82;101893.41;4993449;28;20039;-71
2023/04/06 12:04:24;;;;;;;;;;;;;;;12.23;32.85;101893.13;5001589;28;19986;-74
2023/04/06 12:06:50;;;;;;;;;;;;;;;12.30;33.03;101885.69;4999801;28;19932;-73
2023/04/06 12:09:17;;;;;;;;;;;;;;;12.67;34.18;101898.41;4966032;28;20308;-74
2023/04/06 12:11:43;;;;;;;;;;;;;;;12.72;31.98;101891.19;4994134;28;19959;-73
2023/04/06 12:14:08;;;;;;;;;;;;;;;12.62;35.36;101901.84;5003946;28;19934;-73
2023/04/06 12:16:34;;;;;;;;;;;;;;;12.68;32.03;101889.28;5015416;28;20328;-73
2023/04/06 12:19:01;;;;;;;;;;;;;;;12.66;31.19;101881.44;5000333;28;20082;-73
2023/04/06 12:21:27;;;;;;;;;;;;;;;12.81;32.32;101886.97;4981334;28;19951;-74
2023/04/06 12:23:52;;;;;;;;;;;;;;;12.71;32.74;101889.56;5008892;28;19937;-72
2023/04/06 12:26:18;;;;;;;;;;;;;;;12.84;32.00;101891.00;4999231;28;19950;-73
2023/04/06 12:28:44;;;;;;;;;;;;;;;13.07;32.55;101887.97;5006879;28;20013;-73
2023/04/06 12:31:17;;;;;;;;;;;;;;;13.02;32.38;101884.44;4982887;28;19940;-74
2023/04/06 12:33:42;;;;;;;;;;;;;;;13.49;31.32;101875.63;4987902;28;19943;-72
2023/04/06 12:36:12;;;;;;;;;;;;;;;13.42;31.58;101881.22;4999334;28;19952;-73
2023/04/06 12:38:39;;;;;;;;;;;;;;;13.46;30.95;101886.88;5014950;28;19959;-73
2023/04/06 12:41:06;;;;;;;;;;;;;;;13.10;31.32;101876.69;4999052;28;19932;-73
2023/04/06 12:43:31;;;;;;;;;;;;;;;13.51;31.23;101878.84;4990994;28;20448;-74